sensor_id;sensor_type;location;lat;lon;timestamp;temperature;humidity
54576;DHT22;40472;53.486;14.542;2023-01-23T00:01:29;0.60;99.90
54576;DHT22;40472;53.486;14.542;2023-01-23T00:03:59;0.60;99.90
54576;DHT22;40472;53.486;14.542;2023-01-23T00:06:25;0.60;99.90
54576;DHT22;40472;53.486;14.542;2023-01-23T00:08:51;0.60;99.90
54576;DHT22;40472;53.486;14.542;2023-01-23T00:11:23;0.60;99.90
54576;DHT22;40472;53.486;14.542;2023-01-23T00:13:51;0.60;99.90
54576;DHT22;40472;53.486;14.542;2023-01-23T00:16:20;0.60;99.90
54576;DHT22;40472;53.486;14.542;2023-01-23T00:18:46;0.50;99.90
54576;DHT22;40472;53.486;14.542;2023-01-23T00:21:14;0.60;99.90
54576;DHT22;40472;53.486;14.542;2023-01-23T00:23:47;0.60;99.90
54576;DHT22;40472;53.486;14.542;2023-01-23T00:26:17;0.60;99.90
54576;DHT22;40472;53.486;14.542;2023-01-23T00:28:44;0.60;99.90
54576;DHT22;40472;53.486;14.542;2023-01-23T00:31:21;0.50;99.90
54576;DHT22;40472;53.486;14.542;2023-01-23T00:33:47;0.60;99.90
54576;DHT22;40472;53.486;14.542;2023-01-23T00:36:13;0.50;99.90
54576;DHT22;40472;53.486;14.542;2023-01-23T00:38:40;0.50;99.90
54576;DHT22;40472;53.486;14.542;2023-01-23T00:41:06;0.50;99.90
54576;DHT22;40472;53.486;14.542;2023-01-23T00:43:32;0.50;99.90
54576;DHT22;40472;53.486;14.542;2023-01-23T00:45:58;0.50;99.90
54576;DHT22;40472;53.486;14.542;2023-01-23T00:48:24;0.50;99.90
54576;DHT22;40472;53.486;14.542;2023-01-23T00:50:50;0.50;99.90
54576;DHT22;40472;53.486;14.542;2023-01-23T00:53:16;0.50;99.90
54576;DHT22;40472;53.486;14.542;2023-01-23T00:55:42;0.50;99.90
54576;DHT22;40472;53.486;14.542;2023-01-23T00:58:08;0.50;99.90
54576;DHT22;40472;53.486;14.542;2023-01-23T01:00:36;0.50;99.90
54576;DHT22;40472;53.486;14.542;2023-01-23T01:03:02;0.50;99.90
54576;DHT22;40472;53.486;14.542;2023-01-23T01:05:28;0.50;99.90
54576;DHT22;40472;53.486;14.542;2023-01-23T01:07:53;0.50;99.90
54576;DHT22;40472;53.486;14.542;2023-01-23T01:10:19;0.60;99.90
54576;DHT22;40472;53.486;14.542;2023-01-23T01:12:45;0.60;99.90
54576;DHT22;40472;53.486;14.542;2023-01-23T01:15:11;0.60;99.90
54576;DHT22;40472;53.486;14.542;2023-01-23T01:17:37;0.60;99.90
54576;DHT22;40472;53.486;14.542;2023-01-23T01:20:05;0.50;99.90
54576;DHT22;40472;53.486;14.542;2023-01-23T01:22:31;0.50;99.90
54576;DHT22;40472;53.486;14.542;2023-01-23T01:24:57;0.50;99.90
54576;DHT22;40472;53.486;14.542;2023-01-23T01:27:23;0.50;99.90
54576;DHT22;40472;53.486;14.542;2023-01-23T01:29:49;0.50;99.90
54576;DHT22;40472;53.486;14.542;2023-01-23T01:32:15;0.50;99.90
54576;DHT22;40472;53.486;14.542;2023-01-23T01:34:40;0.50;99.90
54576;DHT22;40472;53.486;14.542;2023-01-23T01:37:06;0.50;99.90
54576;DHT22;40472;53.486;14.542;2023-01-23T01:39:32;0.50;99.90
54576;DHT22;40472;53.486;14.542;2023-01-23T01:41:58;0.50;99.90
54576;DHT22;40472;53.486;14.542;2023-01-23T01:44:24;0.50;99.90
54576;DHT22;40472;53.486;14.542;2023-01-23T01:46:50;0.40;99.90
54576;DHT22;40472;53.486;14.542;2023-01-23T01:49:22;0.50;99.90
54576;DHT22;40472;53.486;14.542;2023-01-23T01:52:07;0.40;99.90
54576;DHT22;40472;53.486;14.542;2023-01-23T01:54:46;0.40;99.90
54576;DHT22;40472;53.486;14.542;2023-01-23T01:57:23;0.50;99.90
54576;DHT22;40472;53.486;14.542;2023-01-23T02:00:00;0.50;99.90
54576;DHT22;40472;53.486;14.542;2023-01-23T02:02:49;0.50;99.90
54576;DHT22;40472;53.486;14.542;2023-01-23T02:05:28;0.50;99.90
54576;DHT22;40472;53.486;14.542;2023-01-23T02:10:45;0.50;99.90
54576;DHT22;40472;53.486;14.542;2023-01-23T02:13:37;0.40;99.90
54576;DHT22;40472;53.486;14.542;2023-01-23T02:16:19;0.50;99.90
54576;DHT22;40472;53.486;14.542;2023-01-23T02:18:50;0.50;99.90
54576;DHT22;40472;53.486;14.542;2023-01-23T02:21:22;0.50;99.90
54576;DHT22;40472;53.486;14.542;2023-01-23T02:24:13;0.50;99.90
54576;DHT22;40472;53.486;14.542;2023-01-23T02:26:43;0.50;99.90
54576;DHT22;40472;53.486;14.542;2023-01-23T02:29:10;0.40;99.90
54576;DHT22;40472;53.486;14.542;2023-01-23T02:31:36;0.50;99.90
54576;DHT22;40472;53.486;14.542;2023-01-23T02:34:03;0.50;99.90
54576;DHT22;40472;53.486;14.542;2023-01-23T02:36:32;0.50;99.90
54576;DHT22;40472;53.486;14.542;2023-01-23T02:41:33;0.50;99.90
54576;DHT22;40472;53.486;14.542;2023-01-23T02:44:02;0.50;99.90
54576;DHT22;40472;53.486;14.542;2023-01-23T02:46:29;0.40;99.90
54576;DHT22;40472;53.486;14.542;2023-01-23T02:48:55;0.40;99.90
54576;DHT22;40472;53.486;14.542;2023-01-23T02:51:20;0.50;99.90
54576;DHT22;40472;53.486;14.542;2023-01-23T02:53:47;0.50;99.90
54576;DHT22;40472;53.486;14.542;2023-01-23T02:56:13;0.40;99.90
54576;DHT22;40472;53.486;14.542;2023-01-23T02:58:40;0.40;99.90
54576;DHT22;40472;53.486;14.542;2023-01-23T03:01:24;0.40;99.90
54576;DHT22;40472;53.486;14.542;2023-01-23T03:03:52;0.50;99.90
54576;DHT22;40472;53.486;14.542;2023-01-23T03:06:20;0.50;99.90
54576;DHT22;40472;53.486;14.542;2023-01-23T03:08:46;0.40;99.90
54576;DHT22;40472;53.486;14.542;2023-01-23T03:11:12;0.40;99.90
54576;DHT22;40472;53.486;14.542;2023-01-23T03:13:39;0.40;99.90
54576;DHT22;40472;53.486;14.542;2023-01-23T03:16:04;0.40;99.90
54576;DHT22;40472;53.486;14.542;2023-01-23T03:18:31;0.40;99.90
54576;DHT22;40472;53.486;14.542;2023-01-23T03:21:05;0.40;99.90
54576;DHT22;40472;53.486;14.542;2023-01-23T03:23:31;0.40;99.90
54576;DHT22;40472;53.486;14.542;2023-01-23T03:25:57;0.40;99.90
54576;DHT22;40472;53.486;14.542;2023-01-23T03:28:27;0.40;99.90
54576;DHT22;40472;53.486;14.542;2023-01-23T03:31:12;0.40;99.90
54576;DHT22;40472;53.486;14.542;2023-01-23T03:33:38;0.40;99.90
54576;DHT22;40472;53.486;14.542;2023-01-23T03:36:08;0.50;99.90
54576;DHT22;40472;53.486;14.542;2023-01-23T03:38:34;0.50;99.90
54576;DHT22;40472;53.486;14.542;2023-01-23T03:41:01;0.40;99.90
54576;DHT22;40472;53.486;14.542;2023-01-23T03:43:45;0.40;99.90
54576;DHT22;40472;53.486;14.542;2023-01-23T03:46:11;0.40;99.90
54576;DHT22;40472;53.486;14.542;2023-01-23T03:48:37;0.40;99.90
54576;DHT22;40472;53.486;14.542;2023-01-23T03:51:04;0.60;99.90
54576;DHT22;40472;53.486;14.542;2023-01-23T03:53:30;0.60;99.90
54576;DHT22;40472;53.486;14.542;2023-01-23T03:55:56;0.70;99.90
54576;DHT22;40472;53.486;14.542;2023-01-23T03:58:22;0.60;99.90
54576;DHT22;40472;53.486;14.542;2023-01-23T04:00:48;0.60;99.90
54576;DHT22;40472;53.486;14.542;2023-01-23T04:03:13;0.50;99.90
54576;DHT22;40472;53.486;14.542;2023-01-23T04:05:39;0.50;99.90
54576;DHT22;40472;53.486;14.542;2023-01-23T04:08:05;0.50;99.90
54576;DHT22;40472;53.486;14.542;2023-01-23T04:10:31;0.40;99.90
54576;DHT22;40472;53.486;14.542;2023-01-23T04:12:56;0.40;99.90
54576;DHT22;40472;53.486;14.542;2023-01-23T04:15:22;0.40;99.90
54576;DHT22;40472;53.486;14.542;2023-01-23T04:17:48;0.30;99.90
54576;DHT22;40472;53.486;14.542;2023-01-23T04:20:14;0.30;99.90
54576;DHT22;40472;53.486;14.542;2023-01-23T04:22:39;0.30;99.90
54576;DHT22;40472;53.486;14.542;2023-01-23T04:25:05;0.30;99.90
54576;DHT22;40472;53.486;14.542;2023-01-23T04:27:32;0.30;99.90
54576;DHT22;40472;53.486;14.542;2023-01-23T04:29:57;0.30;99.90
54576;DHT22;40472;53.486;14.542;2023-01-23T04:32:24;0.30;99.90
54576;DHT22;40472;53.486;14.542;2023-01-23T04:34:50;0.40;99.90
54576;DHT22;40472;53.486;14.542;2023-01-23T04:37:16;0.40;99.90
54576;DHT22;40472;53.486;14.542;2023-01-23T04:39:42;0.30;99.90
54576;DHT22;40472;53.486;14.542;2023-01-23T04:42:08;0.40;99.90
54576;DHT22;40472;53.486;14.542;2023-01-23T04:44:34;0.30;99.90
54576;DHT22;40472;53.486;14.542;2023-01-23T04:47:00;0.30;99.90
54576;DHT22;40472;53.486;14.542;2023-01-23T04:49:25;0.40;99.90
54576;DHT22;40472;53.486;14.542;2023-01-23T04:51:52;0.40;99.90
54576;DHT22;40472;53.486;14.542;2023-01-23T04:54:18;0.30;99.90
54576;DHT22;40472;53.486;14.542;2023-01-23T04:56:45;0.30;99.90
54576;DHT22;40472;53.486;14.542;2023-01-23T04:59:12;0.40;99.90
54576;DHT22;40472;53.486;14.542;2023-01-23T05:01:38;0.40;99.90
54576;DHT22;40472;53.486;14.542;2023-01-23T05:04:04;0.30;99.90
54576;DHT22;40472;53.486;14.542;2023-01-23T05:06:30;0.30;99.90
54576;DHT22;40472;53.486;14.542;2023-01-23T05:08:56;0.30;99.90
54576;DHT22;40472;53.486;14.542;2023-01-23T05:11:22;0.30;99.90
54576;DHT22;40472;53.486;14.542;2023-01-23T05:13:48;0.30;99.90
54576;DHT22;40472;53.486;14.542;2023-01-23T05:16:13;0.30;99.90
54576;DHT22;40472;53.486;14.542;2023-01-23T05:18:39;0.30;99.90
54576;DHT22;40472;53.486;14.542;2023-01-23T05:21:05;0.30;99.90
54576;DHT22;40472;53.486;14.542;2023-01-23T05:23:31;0.30;99.90
54576;DHT22;40472;53.486;14.542;2023-01-23T05:25:57;0.30;99.90
54576;DHT22;40472;53.486;14.542;2023-01-23T05:28:26;0.30;99.90
54576;DHT22;40472;53.486;14.542;2023-01-23T05:30:52;0.30;99.90
54576;DHT22;40472;53.486;14.542;2023-01-23T05:33:18;0.30;99.90
54576;DHT22;40472;53.486;14.542;2023-01-23T05:35:44;0.30;99.90
54576;DHT22;40472;53.486;14.542;2023-01-23T05:38:11;0.30;99.90
54576;DHT22;40472;53.486;14.542;2023-01-23T05:40:37;0.30;99.90
54576;DHT22;40472;53.486;14.542;2023-01-23T05:43:03;0.30;99.90
54576;DHT22;40472;53.486;14.542;2023-01-23T05:45:28;0.30;99.90
54576;DHT22;40472;53.486;14.542;2023-01-23T05:47:55;0.30;99.90
54576;DHT22;40472;53.486;14.542;2023-01-23T05:50:21;0.30;99.90
54576;DHT22;40472;53.486;14.542;2023-01-23T05:52:49;0.20;99.90
54576;DHT22;40472;53.486;14.542;2023-01-23T05:55:15;0.20;99.90
54576;DHT22;40472;53.486;14.542;2023-01-23T05:57:41;0.20;99.90
54576;DHT22;40472;53.486;14.542;2023-01-23T06:00:11;0.20;99.90
54576;DHT22;40472;53.486;14.542;2023-01-23T06:02:38;0.30;99.90
54576;DHT22;40472;53.486;14.542;2023-01-23T06:05:04;0.30;99.90
54576;DHT22;40472;53.486;14.542;2023-01-23T06:07:30;0.20;99.90
54576;DHT22;40472;53.486;14.542;2023-01-23T06:09:55;0.20;99.90
54576;DHT22;40472;53.486;14.542;2023-01-23T06:12:21;0.20;99.90
54576;DHT22;40472;53.486;14.542;2023-01-23T06:14:47;0.20;99.90
54576;DHT22;40472;53.486;14.542;2023-01-23T06:17:13;0.10;99.90
54576;DHT22;40472;53.486;14.542;2023-01-23T06:19:39;0.20;99.90
54576;DHT22;40472;53.486;14.542;2023-01-23T06:22:05;0.20;99.90
54576;DHT22;40472;53.486;14.542;2023-01-23T06:24:31;0.20;99.90
54576;DHT22;40472;53.486;14.542;2023-01-23T06:26:56;0.20;99.90
54576;DHT22;40472;53.486;14.542;2023-01-23T06:29:22;0.20;99.90
54576;DHT22;40472;53.486;14.542;2023-01-23T06:31:48;0.20;99.90
54576;DHT22;40472;53.486;14.542;2023-01-23T06:34:14;0.20;99.90
54576;DHT22;40472;53.486;14.542;2023-01-23T06:36:40;0.20;99.90
54576;DHT22;40472;53.486;14.542;2023-01-23T06:39:06;0.20;99.90
54576;DHT22;40472;53.486;14.542;2023-01-23T06:41:32;0.20;99.90
54576;DHT22;40472;53.486;14.542;2023-01-23T06:43:58;0.20;99.90
54576;DHT22;40472;53.486;14.542;2023-01-23T06:46:24;0.20;99.90
54576;DHT22;40472;53.486;14.542;2023-01-23T06:48:51;0.20;99.90
54576;DHT22;40472;53.486;14.542;2023-01-23T06:51:17;0.10;99.90
54576;DHT22;40472;53.486;14.542;2023-01-23T06:53:43;0.10;99.90
54576;DHT22;40472;53.486;14.542;2023-01-23T06:56:08;0.10;99.90
54576;DHT22;40472;53.486;14.542;2023-01-23T06:58:34;0.20;99.90
54576;DHT22;40472;53.486;14.542;2023-01-23T07:01:13;0.10;99.90
54576;DHT22;40472;53.486;14.542;2023-01-23T07:03:41;0.20;99.90
54576;DHT22;40472;53.486;14.542;2023-01-23T07:06:07;0.20;99.90
54576;DHT22;40472;53.486;14.542;2023-01-23T07:08:33;0.20;99.90
54576;DHT22;40472;53.486;14.542;2023-01-23T07:11:00;0.20;99.90
54576;DHT22;40472;53.486;14.542;2023-01-23T07:13:26;0.30;99.90
54576;DHT22;40472;53.486;14.542;2023-01-23T07:15:52;0.20;99.90
54576;DHT22;40472;53.486;14.542;2023-01-23T07:18:18;0.20;99.90
54576;DHT22;40472;53.486;14.542;2023-01-23T07:20:44;0.10;99.90
54576;DHT22;40472;53.486;14.542;2023-01-23T07:23:10;0.10;99.90
54576;DHT22;40472;53.486;14.542;2023-01-23T07:25:37;0.10;99.90
54576;DHT22;40472;53.486;14.542;2023-01-23T07:28:03;0.10;99.90
54576;DHT22;40472;53.486;14.542;2023-01-23T07:30:30;0.10;99.90
54576;DHT22;40472;53.486;14.542;2023-01-23T07:32:55;0.20;99.90
54576;DHT22;40472;53.486;14.542;2023-01-23T07:35:22;0.20;99.90
54576;DHT22;40472;53.486;14.542;2023-01-23T07:37:48;0.10;99.90
54576;DHT22;40472;53.486;14.542;2023-01-23T07:40:14;0.10;99.90
54576;DHT22;40472;53.486;14.542;2023-01-23T07:42:40;0.20;99.90
54576;DHT22;40472;53.486;14.542;2023-01-23T07:45:09;0.30;99.90
54576;DHT22;40472;53.486;14.542;2023-01-23T07:47:36;0.20;99.90
54576;DHT22;40472;53.486;14.542;2023-01-23T07:50:01;0.20;99.90
54576;DHT22;40472;53.486;14.542;2023-01-23T07:52:27;0.20;99.90
54576;DHT22;40472;53.486;14.542;2023-01-23T07:54:53;0.20;99.90
54576;DHT22;40472;53.486;14.542;2023-01-23T07:57:18;0.20;99.90
54576;DHT22;40472;53.486;14.542;2023-01-23T07:59:46;0.20;99.90
54576;DHT22;40472;53.486;14.542;2023-01-23T08:02:12;0.20;99.90
54576;DHT22;40472;53.486;14.542;2023-01-23T08:04:37;0.20;99.90
54576;DHT22;40472;53.486;14.542;2023-01-23T08:07:04;0.30;99.90
54576;DHT22;40472;53.486;14.542;2023-01-23T08:09:30;0.30;99.90
54576;DHT22;40472;53.486;14.542;2023-01-23T08:11:55;0.30;99.90
54576;DHT22;40472;53.486;14.542;2023-01-23T08:14:21;0.30;99.90
54576;DHT22;40472;53.486;14.542;2023-01-23T08:16:51;0.30;99.90
54576;DHT22;40472;53.486;14.542;2023-01-23T08:19:18;0.40;99.90
54576;DHT22;40472;53.486;14.542;2023-01-23T08:21:44;0.30;99.90
54576;DHT22;40472;53.486;14.542;2023-01-23T08:24:11;0.30;99.90
54576;DHT22;40472;53.486;14.542;2023-01-23T08:26:37;0.30;99.90
54576;DHT22;40472;53.486;14.542;2023-01-23T08:29:03;0.30;99.90
54576;DHT22;40472;53.486;14.542;2023-01-23T08:31:30;0.50;99.90
54576;DHT22;40472;53.486;14.542;2023-01-23T08:33:56;0.50;99.90
54576;DHT22;40472;53.486;14.542;2023-01-23T08:36:21;0.50;99.90
54576;DHT22;40472;53.486;14.542;2023-01-23T08:38:47;0.40;99.90
54576;DHT22;40472;53.486;14.542;2023-01-23T08:41:13;0.40;99.90
54576;DHT22;40472;53.486;14.542;2023-01-23T08:43:39;0.50;99.90
54576;DHT22;40472;53.486;14.542;2023-01-23T08:46:09;0.40;99.90
54576;DHT22;40472;53.486;14.542;2023-01-23T08:48:36;0.40;99.90
54576;DHT22;40472;53.486;14.542;2023-01-23T08:51:04;0.40;99.90
54576;DHT22;40472;53.486;14.542;2023-01-23T08:53:30;0.50;99.90
54576;DHT22;40472;53.486;14.542;2023-01-23T08:56:04;0.50;99.90
54576;DHT22;40472;53.486;14.542;2023-01-23T08:58:30;0.70;99.90
54576;DHT22;40472;53.486;14.542;2023-01-23T09:00:56;0.50;99.90
54576;DHT22;40472;53.486;14.542;2023-01-23T09:03:22;0.50;99.90
54576;DHT22;40472;53.486;14.542;2023-01-23T09:05:47;0.50;99.90
54576;DHT22;40472;53.486;14.542;2023-01-23T09:08:13;0.50;99.90
54576;DHT22;40472;53.486;14.542;2023-01-23T09:10:39;0.60;99.90
54576;DHT22;40472;53.486;14.542;2023-01-23T09:13:05;0.70;99.90
54576;DHT22;40472;53.486;14.542;2023-01-23T09:15:30;0.60;99.90
54576;DHT22;40472;53.486;14.542;2023-01-23T09:17:56;0.60;99.90
54576;DHT22;40472;53.486;14.542;2023-01-23T09:20:22;0.60;99.90
54576;DHT22;40472;53.486;14.542;2023-01-23T09:22:51;0.60;99.90
54576;DHT22;40472;53.486;14.542;2023-01-23T09:25:17;0.70;99.90
54576;DHT22;40472;53.486;14.542;2023-01-23T09:27:43;0.60;99.90
54576;DHT22;40472;53.486;14.542;2023-01-23T09:30:27;0.60;99.90
54576;DHT22;40472;53.486;14.542;2023-01-23T09:32:53;0.70;99.90
54576;DHT22;40472;53.486;14.542;2023-01-23T09:35:19;0.70;99.90
54576;DHT22;40472;53.486;14.542;2023-01-23T09:37:44;0.80;99.90
54576;DHT22;40472;53.486;14.542;2023-01-23T09:40:48;0.70;99.90
54576;DHT22;40472;53.486;14.542;2023-01-23T09:48:45;0.60;99.90
54576;DHT22;40472;53.486;14.542;2023-01-23T09:51:40;0.60;99.90
54576;DHT22;40472;53.486;14.542;2023-01-23T09:56:53;0.70;99.90
54576;DHT22;40472;53.486;14.542;2023-01-23T09:59:37;0.70;99.90
54576;DHT22;40472;53.486;14.542;2023-01-23T10:02:18;0.70;99.90
54576;DHT22;40472;53.486;14.542;2023-01-23T10:04:53;0.70;99.90
54576;DHT22;40472;53.486;14.542;2023-01-23T10:25:48;1.00;99.90
54576;DHT22;40472;53.486;14.542;2023-01-23T10:28:34;0.90;99.90
54576;DHT22;40472;53.486;14.542;2023-01-23T10:31:03;1.00;99.90
54576;DHT22;40472;53.486;14.542;2023-01-23T10:33:44;1.00;99.90
54576;DHT22;40472;53.486;14.542;2023-01-23T10:36:34;1.10;99.90
54576;DHT22;40472;53.486;14.542;2023-01-23T10:39:24;1.00;99.90
54576;DHT22;40472;53.486;14.542;2023-01-23T10:41:50;0.80;99.90
54576;DHT22;40472;53.486;14.542;2023-01-23T10:44:18;0.80;99.90
54576;DHT22;40472;53.486;14.542;2023-01-23T10:46:48;1.00;99.90
54576;DHT22;40472;53.486;14.542;2023-01-23T10:49:35;1.00;99.90
54576;DHT22;40472;53.486;14.542;2023-01-23T10:57:48;1.00;99.90
54576;DHT22;40472;53.486;14.542;2023-01-23T11:02:42;1.00;99.90
54576;DHT22;40472;53.486;14.542;2023-01-23T11:05:40;0.90;99.90
54576;DHT22;40472;53.486;14.542;2023-01-23T11:08:33;0.80;99.90
54576;DHT22;40472;53.486;14.542;2023-01-23T11:11:20;0.80;99.90
54576;DHT22;40472;53.486;14.542;2023-01-23T11:13:50;0.90;99.90
54576;DHT22;40472;53.486;14.542;2023-01-23T11:16:21;0.90;99.90
54576;DHT22;40472;53.486;14.542;2023-01-23T11:21:53;1.00;99.90
54576;DHT22;40472;53.486;14.542;2023-01-23T11:24:36;1.00;99.90
54576;DHT22;40472;53.486;14.542;2023-01-23T11:27:16;1.00;99.90
54576;DHT22;40472;53.486;14.542;2023-01-23T11:30:00;1.10;99.90
54576;DHT22;40472;53.486;14.542;2023-01-23T11:32:29;1.10;99.90
54576;DHT22;40472;53.486;14.542;2023-01-23T11:35:19;1.10;99.90
54576;DHT22;40472;53.486;14.542;2023-01-23T11:37:47;1.20;99.90
54576;DHT22;40472;53.486;14.542;2023-01-23T11:40:18;1.00;99.90
54576;DHT22;40472;53.486;14.542;2023-01-23T11:42:45;1.00;99.90
54576;DHT22;40472;53.486;14.542;2023-01-23T11:45:47;1.10;99.90
54576;DHT22;40472;53.486;14.542;2023-01-23T11:48:39;1.10;99.90
54576;DHT22;40472;53.486;14.542;2023-01-23T11:53:49;1.10;99.90
54576;DHT22;40472;53.486;14.542;2023-01-23T11:56:38;1.20;99.90
54576;DHT22;40472;53.486;14.542;2023-01-23T11:59:27;1.20;99.90
54576;DHT22;40472;53.486;14.542;2023-01-23T12:02:15;1.10;99.90
54576;DHT22;40472;53.486;14.542;2023-01-23T12:05:29;1.10;99.90
54576;DHT22;40472;53.486;14.542;2023-01-23T12:11:00;1.10;99.90
54576;DHT22;40472;53.486;14.542;2023-01-23T12:16:24;1.00;99.90
54576;DHT22;40472;53.486;14.542;2023-01-23T12:21:18;0.70;99.90
54576;DHT22;40472;53.486;14.542;2023-01-23T12:26:44;0.70;99.90
54576;DHT22;40472;53.486;14.542;2023-01-23T12:32:27;0.60;99.90
54576;DHT22;40472;53.486;14.542;2023-01-23T12:38:08;0.60;99.90
54576;DHT22;40472;53.486;14.542;2023-01-23T12:40:46;0.60;99.90
54576;DHT22;40472;53.486;14.542;2023-01-23T12:46:04;0.70;99.90
54576;DHT22;40472;53.486;14.542;2023-01-23T12:48:48;0.70;99.90
54576;DHT22;40472;53.486;14.542;2023-01-23T12:51:38;0.70;99.90
54576;DHT22;40472;53.486;14.542;2023-01-23T12:54:13;0.60;99.90
54576;DHT22;40472;53.486;14.542;2023-01-23T12:56:41;0.60;99.90
54576;DHT22;40472;53.486;14.542;2023-01-23T12:59:26;0.80;99.90
54576;DHT22;40472;53.486;14.542;2023-01-23T13:02:05;0.90;99.90
54576;DHT22;40472;53.486;14.542;2023-01-23T13:07:44;0.90;99.90
54576;DHT22;40472;53.486;14.542;2023-01-23T13:12:48;0.70;99.90
54576;DHT22;40472;53.486;14.542;2023-01-23T13:28:52;0.80;99.90
54576;DHT22;40472;53.486;14.542;2023-01-23T13:33:51;0.70;99.90
54576;DHT22;40472;53.486;14.542;2023-01-23T13:36:33;0.60;99.90
54576;DHT22;40472;53.486;14.542;2023-01-23T13:39:02;0.70;99.90
54576;DHT22;40472;53.486;14.542;2023-01-23T13:41:32;0.70;99.90
54576;DHT22;40472;53.486;14.542;2023-01-23T13:52:30;0.70;99.90
54576;DHT22;40472;53.486;14.542;2023-01-23T13:55:19;0.80;99.90
54576;DHT22;40472;53.486;14.542;2023-01-23T13:58:05;0.80;99.90
54576;DHT22;40472;53.486;14.542;2023-01-23T14:00:35;0.70;99.90
54576;DHT22;40472;53.486;14.542;2023-01-23T14:03:25;0.70;99.90
54576;DHT22;40472;53.486;14.542;2023-01-23T14:06:15;0.70;99.90
54576;DHT22;40472;53.486;14.542;2023-01-23T14:08:51;0.60;99.90
54576;DHT22;40472;53.486;14.542;2023-01-23T14:11:17;0.50;99.90
54576;DHT22;40472;53.486;14.542;2023-01-23T14:13:52;0.50;99.90
54576;DHT22;40472;53.486;14.542;2023-01-23T14:16:48;0.50;99.90
54576;DHT22;40472;53.486;14.542;2023-01-23T14:19:28;0.60;99.90
54576;DHT22;40472;53.486;14.542;2023-01-23T14:22:13;0.60;99.90
54576;DHT22;40472;53.486;14.542;2023-01-23T14:24:45;0.50;99.90
54576;DHT22;40472;53.486;14.542;2023-01-23T14:27:19;0.40;99.90
54576;DHT22;40472;53.486;14.542;2023-01-23T14:32:39;0.50;99.90
54576;DHT22;40472;53.486;14.542;2023-01-23T14:35:29;0.50;99.90
54576;DHT22;40472;53.486;14.542;2023-01-23T14:37:59;0.50;99.90
54576;DHT22;40472;53.486;14.542;2023-01-23T14:40:26;0.60;99.90
54576;DHT22;40472;53.486;14.542;2023-01-23T14:43:02;0.40;99.90
54576;DHT22;40472;53.486;14.542;2023-01-23T14:45:33;0.40;99.90
54576;DHT22;40472;53.486;14.542;2023-01-23T14:47:59;0.50;99.90
54576;DHT22;40472;53.486;14.542;2023-01-23T14:50:27;0.60;99.90
54576;DHT22;40472;53.486;14.542;2023-01-23T14:53:20;0.50;99.90
54576;DHT22;40472;53.486;14.542;2023-01-23T14:55:47;0.40;99.90
54576;DHT22;40472;53.486;14.542;2023-01-23T14:58:22;0.30;99.90
54576;DHT22;40472;53.486;14.542;2023-01-23T15:00:49;0.40;99.90
54576;DHT22;40472;53.486;14.542;2023-01-23T15:03:42;0.50;99.90
54576;DHT22;40472;53.486;14.542;2023-01-23T15:06:22;0.50;99.90
54576;DHT22;40472;53.486;14.542;2023-01-23T15:08:48;0.30;99.90
54576;DHT22;40472;53.486;14.542;2023-01-23T15:11:15;0.40;99.90
54576;DHT22;40472;53.486;14.542;2023-01-23T15:13:52;0.50;99.90
54576;DHT22;40472;53.486;14.542;2023-01-23T15:16:25;0.40;99.90
54576;DHT22;40472;53.486;14.542;2023-01-23T15:19:20;0.30;99.90
54576;DHT22;40472;53.486;14.542;2023-01-23T15:21:47;0.30;99.90
54576;DHT22;40472;53.486;14.542;2023-01-23T15:26:59;0.20;99.90
54576;DHT22;40472;53.486;14.542;2023-01-23T15:29:28;0.20;99.90
54576;DHT22;40472;53.486;14.542;2023-01-23T15:31:54;0.20;99.90
54576;DHT22;40472;53.486;14.542;2023-01-23T15:34:32;0.20;99.90
54576;DHT22;40472;53.486;14.542;2023-01-23T15:37:03;0.20;99.90
54576;DHT22;40472;53.486;14.542;2023-01-23T15:39:35;0.20;99.90
54576;DHT22;40472;53.486;14.542;2023-01-23T15:44:37;0.20;99.90
54576;DHT22;40472;53.486;14.542;2023-01-23T15:47:04;0.20;99.90
54576;DHT22;40472;53.486;14.542;2023-01-23T15:49:31;0.40;99.90
54576;DHT22;40472;53.486;14.542;2023-01-23T15:52:00;0.40;99.90
54576;DHT22;40472;53.486;14.542;2023-01-23T15:54:33;0.40;99.90
54576;DHT22;40472;53.486;14.542;2023-01-23T15:57:01;0.30;99.90
54576;DHT22;40472;53.486;14.542;2023-01-23T15:59:27;0.40;99.90
54576;DHT22;40472;53.486;14.542;2023-01-23T16:01:54;0.40;99.90
54576;DHT22;40472;53.486;14.542;2023-01-23T16:04:19;0.30;99.90
54576;DHT22;40472;53.486;14.542;2023-01-23T16:06:46;0.20;99.90
54576;DHT22;40472;53.486;14.542;2023-01-23T16:09:32;0.20;99.90
54576;DHT22;40472;53.486;14.542;2023-01-23T16:12:00;0.30;99.90
54576;DHT22;40472;53.486;14.542;2023-01-23T16:14:26;0.30;99.90
54576;DHT22;40472;53.486;14.542;2023-01-23T16:16:51;0.20;99.90
54576;DHT22;40472;53.486;14.542;2023-01-23T16:19:17;0.20;99.90
54576;DHT22;40472;53.486;14.542;2023-01-23T16:21:43;0.20;99.90
54576;DHT22;40472;53.486;14.542;2023-01-23T16:24:31;0.20;99.90
54576;DHT22;40472;53.486;14.542;2023-01-23T16:26:59;0.10;99.90
54576;DHT22;40472;53.486;14.542;2023-01-23T16:29:31;0.00;99.90
54576;DHT22;40472;53.486;14.542;2023-01-23T16:31:58;0.00;99.90
54576;DHT22;40472;53.486;14.542;2023-01-23T16:34:25;-0.10;99.90
54576;DHT22;40472;53.486;14.542;2023-01-23T16:36:53;-0.10;99.90
54576;DHT22;40472;53.486;14.542;2023-01-23T16:39:22;-0.20;99.90
54576;DHT22;40472;53.486;14.542;2023-01-23T16:41:49;-0.10;99.90
54576;DHT22;40472;53.486;14.542;2023-01-23T16:44:17;0.00;99.90
54576;DHT22;40472;53.486;14.542;2023-01-23T16:46:47;-0.10;99.90
54576;DHT22;40472;53.486;14.542;2023-01-23T16:49:14;-0.10;99.90
54576;DHT22;40472;53.486;14.542;2023-01-23T16:51:43;-0.20;99.90
54576;DHT22;40472;53.486;14.542;2023-01-23T16:54:14;-0.20;99.90
54576;DHT22;40472;53.486;14.542;2023-01-23T16:56:42;-0.20;99.90
54576;DHT22;40472;53.486;14.542;2023-01-23T16:59:14;-0.20;99.90
54576;DHT22;40472;53.486;14.542;2023-01-23T17:01:42;-0.20;99.90
54576;DHT22;40472;53.486;14.542;2023-01-23T17:04:12;-0.10;99.90
54576;DHT22;40472;53.486;14.542;2023-01-23T17:06:39;-0.20;99.90
54576;DHT22;40472;53.486;14.542;2023-01-23T17:09:05;-0.20;99.90
54576;DHT22;40472;53.486;14.542;2023-01-23T17:11:46;-0.20;99.90
54576;DHT22;40472;53.486;14.542;2023-01-23T17:14:19;-0.30;99.90
54576;DHT22;40472;53.486;14.542;2023-01-23T17:16:48;-0.30;99.90
54576;DHT22;40472;53.486;14.542;2023-01-23T17:19:30;-0.30;99.90
54576;DHT22;40472;53.486;14.542;2023-01-23T17:22:01;-0.20;99.90
54576;DHT22;40472;53.486;14.542;2023-01-23T17:24:27;-0.30;99.90
54576;DHT22;40472;53.486;14.542;2023-01-23T17:26:53;-0.30;99.90
54576;DHT22;40472;53.486;14.542;2023-01-23T17:29:19;-0.30;99.90
54576;DHT22;40472;53.486;14.542;2023-01-23T17:31:45;-0.40;99.90
54576;DHT22;40472;53.486;14.542;2023-01-23T17:34:23;-0.40;99.90